sensor_id;sensor_type;location;lat;lon;timestamp;pressure;altitude;pressure_sealevel;temperature;humidity
7018;BME280;3549;42.162;24.726;2022-12-11T00:00:14;47888.13;;;-141.97;100.00
7018;BME280;3549;42.162;24.726;2022-12-11T00:02:39;47903.50;;;-141.97;100.00
7018;BME280;3549;42.162;24.726;2022-12-11T00:05:05;47920.81;;;-141.97;100.00
7018;BME280;3549;42.162;24.726;2022-12-11T00:07:31;48051.53;;;-141.97;100.00
7018;BME280;3549;42.162;24.726;2022-12-11T00:09:57;47953.50;;;-141.97;100.00
7018;BME280;3549;42.162;24.726;2022-12-11T00:12:22;47895.81;;;-141.97;100.00
7018;BME280;3549;42.162;24.726;2022-12-11T00:14:47;47936.19;;;-141.97;100.00
7018;BME280;3549;42.162;24.726;2022-12-11T00:17:13;47936.19;;;-141.97;100.00
7018;BME280;3549;42.162;24.726;2022-12-11T00:19:38;47926.56;;;-141.97;100.00
7018;BME280;3549;42.162;24.726;2022-12-11T00:22:04;47838.16;;;-141.97;100.00
7018;BME280;3549;42.162;24.726;2022-12-11T00:24:29;47922.72;;;-141.97;100.00
7018;BME280;3549;42.162;24.726;2022-12-11T00:26:54;47945.81;;;-141.97;100.00
7018;BME280;3549;42.162;24.726;2022-12-11T00:29:20;47891.97;;;-141.97;100.00
7018;BME280;3549;42.162;24.726;2022-12-11T00:31:45;47834.31;;;-141.97;100.00
7018;BME280;3549;42.162;24.726;2022-12-11T00:34:11;48007.31;;;-141.97;100.00
7018;BME280;3549;42.162;24.726;2022-12-11T00:36:37;47918.88;;;-141.97;100.00
7018;BME280;3549;42.162;24.726;2022-12-11T00:39:03;47895.81;;;-141.97;100.00
7018;BME280;3549;42.162;24.726;2022-12-11T00:41:29;47945.81;;;-141.97;100.00
7018;BME280;3549;42.162;24.726;2022-12-11T00:43:55;47938.09;;;-141.97;100.00
7018;BME280;3549;42.162;24.726;2022-12-11T00:46:20;47911.19;;;-141.97;100.00
7018;BME280;3549;42.162;24.726;2022-12-11T00:48:46;47938.09;;;-141.97;100.00
7018;BME280;3549;42.162;24.726;2022-12-11T00:51:14;47872.75;;;-141.97;100.00
7018;BME280;3549;42.162;24.726;2022-12-11T00:53:39;47938.09;;;-141.97;100.00
7018;BME280;3549;42.162;24.726;2022-12-11T00:56:12;47988.09;;;-141.97;100.00
7018;BME280;3549;42.162;24.726;2022-12-11T00:58:38;47843.91;;;-141.97;100.00
7018;BME280;3549;42.162;24.726;2022-12-11T01:01:08;47903.50;;;-141.97;100.00
7018;BME280;3549;42.162;24.726;2022-12-11T01:03:34;47934.25;;;-141.97;100.00
7018;BME280;3549;42.162;24.726;2022-12-11T01:05:59;47897.75;;;-141.97;100.00
7018;BME280;3549;42.162;24.726;2022-12-11T01:08:25;47922.72;;;-141.97;100.00
7018;BME280;3549;42.162;24.726;2022-12-11T01:10:50;47938.09;;;-141.97;100.00
7018;BME280;3549;42.162;24.726;2022-12-11T01:13:16;47878.53;;;-141.97;100.00
7018;BME280;3549;42.162;24.726;2022-12-11T01:15:43;47920.81;;;-141.97;100.00
7018;BME280;3549;42.162;24.726;2022-12-11T01:18:13;47907.34;;;-141.97;100.00
7018;BME280;3549;42.162;24.726;2022-12-11T01:20:40;47920.81;;;-141.97;100.00
7018;BME280;3549;42.162;24.726;2022-12-11T01:23:08;47930.41;;;-141.97;100.00
7018;BME280;3549;42.162;24.726;2022-12-11T01:25:34;47899.66;;;-141.97;100.00
7018;BME280;3549;42.162;24.726;2022-12-11T01:28:02;47924.66;;;-141.97;100.00
7018;BME280;3549;42.162;24.726;2022-12-11T01:30:28;47863.13;;;-141.97;100.00
7018;BME280;3549;42.162;24.726;2022-12-11T01:32:53;47920.81;;;-141.97;100.00
7018;BME280;3549;42.162;24.726;2022-12-11T01:35:19;47930.41;;;-141.97;100.00
7018;BME280;3549;42.162;24.726;2022-12-11T01:37:45;47907.34;;;-141.97;100.00
7018;BME280;3549;42.162;24.726;2022-12-11T01:40:13;47945.81;;;-141.97;100.00
7018;BME280;3549;42.162;24.726;2022-12-11T01:42:39;47938.09;;;-141.97;100.00
7018;BME280;3549;42.162;24.726;2022-12-11T01:45:24;47949.66;;;-141.97;100.00
7018;BME280;3549;42.162;24.726;2022-12-11T01:48:08;47930.41;;;-141.97;100.00
7018;BME280;3549;42.162;24.726;2022-12-11T01:50:40;47886.22;;;-141.97;100.00
7018;BME280;3549;42.162;24.726;2022-12-11T01:53:10;47932.34;;;-141.97;100.00
7018;BME280;3549;42.162;24.726;2022-12-11T01:55:36;47926.56;;;-141.97;100.00
7018;BME280;3549;42.162;24.726;2022-12-11T01:58:03;48003.47;;;-141.97;100.00
7018;BME280;3549;42.162;24.726;2022-12-11T02:00:29;47936.19;;;-141.97;100.00
7018;BME280;3549;42.162;24.726;2022-12-11T02:02:54;47903.50;;;-141.97;100.00
7018;BME280;3549;42.162;24.726;2022-12-11T02:05:20;47899.66;;;-141.97;100.00
7018;BME280;3549;42.162;24.726;2022-12-11T02:07:51;47926.56;;;-141.97;100.00
7018;BME280;3549;42.162;24.726;2022-12-11T02:10:18;47897.75;;;-141.97;100.00
7018;BME280;3549;42.162;24.726;2022-12-11T02:12:53;47941.94;;;-141.97;100.00
7018;BME280;3549;42.162;24.726;2022-12-11T02:15:35;47870.81;;;-141.97;100.00
7018;BME280;3549;42.162;24.726;2022-12-11T02:18:14;47930.41;;;-141.97;100.00
7018;BME280;3549;42.162;24.726;2022-12-11T02:21:06;47918.88;;;-141.97;100.00
7018;BME280;3549;42.162;24.726;2022-12-11T02:29:43;47915.03;;;-141.97;100.00
7018;BME280;3549;42.162;24.726;2022-12-11T02:32:42;47934.25;;;-141.97;100.00
7018;BME280;3549;42.162;24.726;2022-12-11T02:35:21;47920.81;;;-141.97;100.00
7018;BME280;3549;42.162;24.726;2022-12-11T02:37:55;47915.03;;;-141.97;100.00
7018;BME280;3549;42.162;24.726;2022-12-11T02:40:24;47938.09;;;-141.97;100.00
7018;BME280;3549;42.162;24.726;2022-12-11T02:42:51;47911.19;;;-141.97;100.00
7018;BME280;3549;42.162;24.726;2022-12-11T02:45:20;47915.03;;;-141.97;100.00
7018;BME280;3549;42.162;24.726;2022-12-11T02:47:47;47909.28;;;-141.97;100.00
7018;BME280;3549;42.162;24.726;2022-12-11T02:50:17;47924.66;;;-141.97;100.00
7018;BME280;3549;42.162;24.726;2022-12-11T02:52:45;47976.56;;;-141.97;100.00
7018;BME280;3549;42.162;24.726;2022-12-11T02:55:14;47918.88;;;-141.97;100.00
7018;BME280;3549;42.162;24.726;2022-12-11T02:57:48;47909.28;;;-141.97;100.00
7018;BME280;3549;42.162;24.726;2022-12-11T03:00:15;47884.28;;;-141.97;100.00
7018;BME280;3549;42.162;24.726;2022-12-11T03:02:42;47915.03;;;-141.97;100.00
7018;BME280;3549;42.162;24.726;2022-12-11T03:05:09;47949.66;;;-141.97;100.00
7018;BME280;3549;42.162;24.726;2022-12-11T03:07:39;47845.84;;;-141.97;100.00
7018;BME280;3549;42.162;24.726;2022-12-11T03:10:07;47903.50;;;-141.97;100.00
7018;BME280;3549;42.162;24.726;2022-12-11T03:12:36;47951.56;;;-141.97;100.00
7018;BME280;3549;42.162;24.726;2022-12-11T03:15:06;47940.03;;;-141.97;100.00
7018;BME280;3549;42.162;24.726;2022-12-11T03:20:43;47920.81;;;-141.97;100.00
7018;BME280;3549;42.162;24.726;2022-12-11T03:23:48;47913.13;;;-141.97;100.00
7018;BME280;3549;42.162;24.726;2022-12-11T03:26:17;47901.59;;;-141.97;100.00
7018;BME280;3549;42.162;24.726;2022-12-11T03:28:52;47861.22;;;-141.97;100.00
7018;BME280;3549;42.162;24.726;2022-12-11T03:33:57;47915.03;;;-141.97;100.00
7018;BME280;3549;42.162;24.726;2022-12-11T03:36:30;47918.88;;;-141.97;100.00
7018;BME280;3549;42.162;24.726;2022-12-11T03:39:20;47901.59;;;-141.97;100.00
7018;BME280;3549;42.162;24.726;2022-12-11T03:41:47;47903.50;;;-141.97;100.00
7018;BME280;3549;42.162;24.726;2022-12-11T03:44:15;47922.72;;;-141.97;100.00
7018;BME280;3549;42.162;24.726;2022-12-11T03:46:42;47903.50;;;-141.97;100.00
7018;BME280;3549;42.162;24.726;2022-12-11T03:49:15;47905.44;;;-141.97;100.00
7018;BME280;3549;42.162;24.726;2022-12-11T03:51:43;47913.13;;;-141.97;100.00
7018;BME280;3549;42.162;24.726;2022-12-11T03:54:11;47930.41;;;-141.97;100.00
7018;BME280;3549;42.162;24.726;2022-12-11T03:56:37;47928.50;;;-141.97;100.00
7018;BME280;3549;42.162;24.726;2022-12-11T03:59:03;47886.22;;;-141.97;100.00
7018;BME280;3549;42.162;24.726;2022-12-11T04:01:29;47926.56;;;-141.97;100.00
7018;BME280;3549;42.162;24.726;2022-12-11T04:03:54;47926.56;;;-141.97;100.00
7018;BME280;3549;42.162;24.726;2022-12-11T04:06:20;47876.59;;;-141.97;100.00
7018;BME280;3549;42.162;24.726;2022-12-11T04:08:45;47915.03;;;-141.97;100.00
7018;BME280;3549;42.162;24.726;2022-12-11T04:11:11;47870.81;;;-141.97;100.00
7018;BME280;3549;42.162;24.726;2022-12-11T04:13:55;47884.28;;;-141.97;100.00
7018;BME280;3549;42.162;24.726;2022-12-11T04:16:39;47936.19;;;-141.97;100.00
7018;BME280;3549;42.162;24.726;2022-12-11T04:19:04;47999.63;;;-141.97;100.00
7018;BME280;3549;42.162;24.726;2022-12-11T04:21:48;47886.22;;;-141.97;100.00
7018;BME280;3549;42.162;24.726;2022-12-11T04:24:32;47930.41;;;-141.97;100.00
7018;BME280;3549;42.162;24.726;2022-12-11T04:26:58;47938.09;;;-141.97;100.00
7018;BME280;3549;42.162;24.726;2022-12-11T04:29:23;47899.66;;;-141.97;100.00
7018;BME280;3549;42.162;24.726;2022-12-11T04:31:49;47916.97;;;-141.97;100.00
7018;BME280;3549;42.162;24.726;2022-12-11T04:34:15;47918.88;;;-141.97;100.00
7018;BME280;3549;42.162;24.726;2022-12-11T04:36:40;47911.19;;;-141.97;100.00
7018;BME280;3549;42.162;24.726;2022-12-11T04:39:06;47907.34;;;-141.97;100.00
7018;BME280;3549;42.162;24.726;2022-12-11T04:41:32;47926.56;;;-141.97;100.00
7018;BME280;3549;42.162;24.726;2022-12-11T04:43:58;47915.03;;;-141.97;100.00
7018;BME280;3549;42.162;24.726;2022-12-11T04:46:23;47872.75;;;-141.97;100.00
7018;BME280;3549;42.162;24.726;2022-12-11T04:48:51;47907.34;;;-141.97;100.00
7018;BME280;3549;42.162;24.726;2022-12-11T04:51:17;47959.25;;;-141.97;100.00
7018;BME280;3549;42.162;24.726;2022-12-11T04:53:44;47934.25;;;-141.97;100.00
7018;BME280;3549;42.162;24.726;2022-12-11T04:56:12;47915.03;;;-141.97;100.00
7018;BME280;3549;42.162;24.726;2022-12-11T04:58:38;47947.72;;;-141.97;100.00
7018;BME280;3549;42.162;24.726;2022-12-11T05:01:12;47928.50;;;-141.97;100.00
7018;BME280;3549;42.162;24.726;2022-12-11T05:03:38;47920.81;;;-141.97;100.00
7018;BME280;3549;42.162;24.726;2022-12-11T05:06:04;47907.34;;;-141.97;100.00
7018;BME280;3549;42.162;24.726;2022-12-11T05:08:30;47876.59;;;-141.97;100.00
7018;BME280;3549;42.162;24.726;2022-12-11T05:11:01;47926.56;;;-141.97;100.00
7018;BME280;3549;42.162;24.726;2022-12-11T05:13:27;47953.50;;;-141.97;100.00
7018;BME280;3549;42.162;24.726;2022-12-11T05:15:53;47932.34;;;-141.97;100.00
7018;BME280;3549;42.162;24.726;2022-12-11T05:18:19;47941.94;;;-141.97;100.00
7018;BME280;3549;42.162;24.726;2022-12-11T05:20:44;47915.03;;;-141.97;100.00
7018;BME280;3549;42.162;24.726;2022-12-11T05:23:10;47884.28;;;-141.97;100.00
7018;BME280;3549;42.162;24.726;2022-12-11T05:25:35;47930.41;;;-141.97;100.00
7018;BME280;3549;42.162;24.726;2022-12-11T05:28:01;47903.50;;;-141.97;100.00
7018;BME280;3549;42.162;24.726;2022-12-11T05:30:26;47916.97;;;-141.97;100.00
7018;BME280;3549;42.162;24.726;2022-12-11T05:32:52;47891.97;;;-141.97;100.00
7018;BME280;3549;42.162;24.726;2022-12-11T05:35:17;47903.50;;;-141.97;100.00
7018;BME280;3549;42.162;24.726;2022-12-11T05:37:42;47916.97;;;-141.97;100.00
7018;BME280;3549;42.162;24.726;2022-12-11T05:40:08;47915.03;;;-141.97;100.00
7018;BME280;3549;42.162;24.726;2022-12-11T05:42:36;47905.44;;;-141.97;100.00
7018;BME280;3549;42.162;24.726;2022-12-11T05:45:02;47895.81;;;-141.97;100.00
7018;BME280;3549;42.162;24.726;2022-12-11T05:47:29;47884.28;;;-141.97;100.00
7018;BME280;3549;42.162;24.726;2022-12-11T05:49:55;47911.19;;;-141.97;100.00
7018;BME280;3549;42.162;24.726;2022-12-11T05:52:21;47888.13;;;-141.97;100.00
7018;BME280;3549;42.162;24.726;2022-12-11T05:54:48;47940.03;;;-141.97;100.00
7018;BME280;3549;42.162;24.726;2022-12-11T05:57:14;47918.88;;;-141.97;100.00
7018;BME280;3549;42.162;24.726;2022-12-11T05:59:40;47849.69;;;-141.97;100.00
7018;BME280;3549;42.162;24.726;2022-12-11T06:02:05;47767.03;;;-141.97;100.00
7018;BME280;3549;42.162;24.726;2022-12-11T06:04:31;47820.84;;;-141.97;100.00
7018;BME280;3549;42.162;24.726;2022-12-11T06:06:57;47997.69;;;-141.97;100.00
7018;BME280;3549;42.162;24.726;2022-12-11T06:09:22;48030.38;;;-141.97;100.00
7018;BME280;3549;42.162;24.726;2022-12-11T06:11:48;47895.81;;;-141.97;100.00
7018;BME280;3549;42.162;24.726;2022-12-11T06:14:13;47934.25;;;-141.97;100.00
7018;BME280;3549;42.162;24.726;2022-12-11T06:16:38;47918.88;;;-141.97;100.00
7018;BME280;3549;42.162;24.726;2022-12-11T06:19:05;47861.22;;;-141.97;100.00
7018;BME280;3549;42.162;24.726;2022-12-11T06:21:32;47903.50;;;-141.97;100.00
7018;BME280;3549;42.162;24.726;2022-12-11T06:23:59;47907.34;;;-141.97;100.00
7018;BME280;3549;42.162;24.726;2022-12-11T06:26:25;47938.09;;;-141.97;100.00
7018;BME280;3549;42.162;24.726;2022-12-11T06:28:51;47893.91;;;-141.97;100.00
7018;BME280;3549;42.162;24.726;2022-12-11T06:31:18;47895.81;;;-141.97;100.00
7018;BME280;3549;42.162;24.726;2022-12-11T06:33:44;48026.53;;;-141.97;100.00
7018;BME280;3549;42.162;24.726;2022-12-11T06:36:14;47918.88;;;-141.97;100.00
7018;BME280;3549;42.162;24.726;2022-12-11T06:38:41;48024.63;;;-141.97;100.00
7018;BME280;3549;42.162;24.726;2022-12-11T06:41:07;47903.50;;;-141.97;100.00
7018;BME280;3549;42.162;24.726;2022-12-11T06:43:35;47888.13;;;-141.97;100.00
7018;BME280;3549;42.162;24.726;2022-12-11T06:46:14;47945.81;;;-141.97;100.00
7018;BME280;3549;42.162;24.726;2022-12-11T06:48:40;47876.59;;;-141.97;100.00
7018;BME280;3549;42.162;24.726;2022-12-11T06:51:08;47895.81;;;-141.97;100.00
7018;BME280;3549;42.162;24.726;2022-12-11T06:53:34;47918.88;;;-141.97;100.00
7018;BME280;3549;42.162;24.726;2022-12-11T06:56:04;48007.31;;;-141.97;100.00
7018;BME280;3549;42.162;24.726;2022-12-11T06:58:30;47928.50;;;-141.97;100.00
7018;BME280;3549;42.162;24.726;2022-12-11T07:00:57;48003.47;;;-141.97;100.00
7018;BME280;3549;42.162;24.726;2022-12-11T07:03:22;47830.47;;;-141.97;100.00
7018;BME280;3549;42.162;24.726;2022-12-11T07:05:48;47924.66;;;-141.97;100.00
7018;BME280;3549;42.162;24.726;2022-12-11T07:08:13;47984.25;;;-141.97;100.00
7018;BME280;3549;42.162;24.726;2022-12-11T07:10:39;47915.03;;;-141.97;100.00
7018;BME280;3549;42.162;24.726;2022-12-11T07:13:05;47890.06;;;-141.97;100.00
7018;BME280;3549;42.162;24.726;2022-12-11T07:15:31;47913.13;;;-141.97;100.00
7018;BME280;3549;42.162;24.726;2022-12-11T07:17:56;47943.88;;;-141.97;100.00
7018;BME280;3549;42.162;24.726;2022-12-11T07:20:21;47913.13;;;-141.97;100.00
7018;BME280;3549;42.162;24.726;2022-12-11T07:22:49;47882.38;;;-141.97;100.00
7018;BME280;3549;42.162;24.726;2022-12-11T07:25:15;47888.13;;;-141.97;100.00
7018;BME280;3549;42.162;24.726;2022-12-11T07:27:41;47934.25;;;-141.97;100.00
7018;BME280;3549;42.162;24.726;2022-12-11T07:30:07;47941.94;;;-141.97;100.00
7018;BME280;3549;42.162;24.726;2022-12-11T07:32:33;47888.13;;;-141.97;100.00
7018;BME280;3549;42.162;24.726;2022-12-11T07:34:58;47861.22;;;-141.97;100.00
7018;BME280;3549;42.162;24.726;2022-12-11T07:37:24;47895.81;;;-141.97;100.00
7018;BME280;3549;42.162;24.726;2022-12-11T07:39:49;47893.91;;;-141.97;100.00
7018;BME280;3549;42.162;24.726;2022-12-11T07:42:15;47834.31;;;-141.97;100.00
7018;BME280;3549;42.162;24.726;2022-12-11T07:44:40;47847.75;;;-141.97;100.00
7018;BME280;3549;42.162;24.726;2022-12-11T07:47:06;47849.69;;;-141.97;100.00
7018;BME280;3549;42.162;24.726;2022-12-11T07:49:31;47918.88;;;-141.97;100.00
7018;BME280;3549;42.162;24.726;2022-12-11T07:51:56;47845.84;;;-141.97;100.00
7018;BME280;3549;42.162;24.726;2022-12-11T07:54:22;47893.91;;;-141.97;100.00
7018;BME280;3549;42.162;24.726;2022-12-11T07:56:47;47817.00;;;-141.97;100.00
7018;BME280;3549;42.162;24.726;2022-12-11T07:59:13;47955.41;;;-141.97;100.00
7018;BME280;3549;42.162;24.726;2022-12-11T08:01:39;47911.19;;;-141.97;100.00
7018;BME280;3549;42.162;24.726;2022-12-11T08:04:06;47853.53;;;-141.97;100.00
7018;BME280;3549;42.162;24.726;2022-12-11T08:06:34;47899.66;;;-141.97;100.00
7018;BME280;3549;42.162;24.726;2022-12-11T08:09:01;47903.50;;;-141.97;100.00
7018;BME280;3549;42.162;24.726;2022-12-11T08:11:27;47870.81;;;-141.97;100.00
7018;BME280;3549;42.162;24.726;2022-12-11T08:13:53;47828.53;;;-141.97;100.00
7018;BME280;3549;42.162;24.726;2022-12-11T08:16:19;47909.28;;;-141.97;100.00
7018;BME280;3549;42.162;24.726;2022-12-11T08:18:46;47888.13;;;-141.97;100.00
7018;BME280;3549;42.162;24.726;2022-12-11T08:21:13;47913.13;;;-141.97;100.00
7018;BME280;3549;42.162;24.726;2022-12-11T08:23:39;47911.19;;;-141.97;100.00
7018;BME280;3549;42.162;24.726;2022-12-11T08:26:06;47866.97;;;-141.97;100.00
7018;BME280;3549;42.162;24.726;2022-12-11T08:28:32;47893.91;;;-141.97;100.00
7018;BME280;3549;42.162;24.726;2022-12-11T08:30:58;47915.03;;;-141.97;100.00
7018;BME280;3549;42.162;24.726;2022-12-11T08:33:24;47880.44;;;-141.97;100.00
7018;BME280;3549;42.162;24.726;2022-12-11T08:35:50;47874.69;;;-141.97;100.00
7018;BME280;3549;42.162;24.726;2022-12-11T08:38:15;47882.38;;;-141.97;99.43
7018;BME280;3549;42.162;24.726;2022-12-11T08:40:41;47849.69;;;-141.97;97.94
7018;BME280;3549;42.162;24.726;2022-12-11T08:43:06;47838.16;;;-141.97;96.73
7018;BME280;3549;42.162;24.726;2022-12-11T08:45:32;47865.06;;;-141.97;94.90
7018;BME280;3549;42.162;24.726;2022-12-11T08:47:58;47865.06;;;-141.97;93.86
7018;BME280;3549;42.162;24.726;2022-12-11T08:50:24;47876.59;;;-141.97;93.48
7018;BME280;3549;42.162;24.726;2022-12-11T08:52:49;47922.72;;;-141.97;93.48
7018;BME280;3549;42.162;24.726;2022-12-11T08:55:15;47876.59;;;-141.97;92.89
7018;BME280;3549;42.162;24.726;2022-12-11T08:57:41;47840.06;;;-141.97;92.53
7018;BME280;3549;42.162;24.726;2022-12-11T09:00:07;47884.28;;;-141.97;91.94
7018;BME280;3549;42.162;24.726;2022-12-11T09:02:33;47884.28;;;-141.97;90.09
7018;BME280;3549;42.162;24.726;2022-12-11T09:04:59;47903.50;;;-141.97;87.47
7018;BME280;3549;42.162;24.726;2022-12-11T09:07:24;47767.03;;;-141.97;85.42
7018;BME280;3549;42.162;24.726;2022-12-11T09:09:53;47876.59;;;-141.97;83.65
7018;BME280;3549;42.162;24.726;2022-12-11T09:12:18;47861.22;;;-141.97;82.12
7018;BME280;3549;42.162;24.726;2022-12-11T09:14:44;47876.59;;;-141.97;79.41
7018;BME280;3549;42.162;24.726;2022-12-11T09:17:09;47828.53;;;-141.97;77.33
7018;BME280;3549;42.162;24.726;2022-12-11T09:19:35;47868.91;;;-141.97;76.89
7018;BME280;3549;42.162;24.726;2022-12-11T09:22:00;47922.72;;;-141.97;76.54
7018;BME280;3549;42.162;24.726;2022-12-11T09:24:26;47859.28;;;-141.97;76.86
7018;BME280;3549;42.162;24.726;2022-12-11T09:26:51;47865.06;;;-141.97;75.94
7018;BME280;3549;42.162;24.726;2022-12-11T09:29:16;47888.13;;;-141.97;77.36
7018;BME280;3549;42.162;24.726;2022-12-11T09:31:42;47899.66;;;-141.97;77.09
7018;BME280;3549;42.162;24.726;2022-12-11T09:34:10;47884.28;;;-141.97;76.69
7018;BME280;3549;42.162;24.726;2022-12-11T09:36:37;47853.53;;;-141.97;75.48
7018;BME280;3549;42.162;24.726;2022-12-11T09:39:05;47830.47;;;-141.97;75.33
7018;BME280;3549;42.162;24.726;2022-12-11T09:46:57;47845.84;;;-141.97;73.10
7018;BME280;3549;42.162;24.726;2022-12-11T09:49:40;47934.25;;;-141.97;72.95
7018;BME280;3549;42.162;24.726;2022-12-11T09:52:21;47851.59;;;-141.97;72.79
7018;BME280;3549;42.162;24.726;2022-12-11T09:54:59;47843.91;;;-141.97;71.86
7018;BME280;3549;42.162;24.726;2022-12-11T09:57:38;47845.84;;;-141.97;70.10
7018;BME280;3549;42.162;24.726;2022-12-11T10:00:22;47865.06;;;-141.97;71.12
7018;BME280;3549;42.162;24.726;2022-12-11T10:03:28;47857.38;;;-141.97;73.39
7018;BME280;3549;42.162;24.726;2022-12-11T10:06:23;47793.94;;;-141.97;72.26
7018;BME280;3549;42.162;24.726;2022-12-11T10:14:18;47857.38;;;-141.97;71.40
7018;BME280;3549;42.162;24.726;2022-12-11T10:16:53;47830.47;;;-141.97;70.71
7018;BME280;3549;42.162;24.726;2022-12-11T10:19:26;47855.44;;;-141.97;70.30
7018;BME280;3549;42.162;24.726;2022-12-11T10:21:52;47807.41;;;-141.97;70.44
7018;BME280;3549;42.162;24.726;2022-12-11T10:24:40;47822.78;;;-141.97;70.08
7018;BME280;3549;42.162;24.726;2022-12-11T10:27:18;47834.31;;;-141.97;68.99
7018;BME280;3549;42.162;24.726;2022-12-11T10:29:45;47822.78;;;-141.97;69.59
7018;BME280;3549;42.162;24.726;2022-12-11T10:32:22;47801.63;;;-141.97;70.26
7018;BME280;3549;42.162;24.726;2022-12-11T10:34:52;47843.91;;;-141.97;70.06
7018;BME280;3549;42.162;24.726;2022-12-11T10:37:20;47807.41;;;-141.97;69.76
7018;BME280;3549;42.162;24.726;2022-12-11T10:39:45;47865.06;;;-141.97;69.23
7018;BME280;3549;42.162;24.726;2022-12-11T10:42:21;47799.72;;;-141.97;68.13
7018;BME280;3549;42.162;24.726;2022-12-11T10:44:58;47847.75;;;-141.97;70.09
7018;BME280;3549;42.162;24.726;2022-12-11T10:47:23;47809.31;;;-141.97;69.41
7018;BME280;3549;42.162;24.726;2022-12-11T10:50:01;47813.16;;;-141.97;68.52
7018;BME280;3549;42.162;24.726;2022-12-11T10:55:01;47880.44;;;-141.97;67.87
7018;BME280;3549;42.162;24.726;2022-12-11T10:57:35;47945.81;;;-141.97;67.18
7018;BME280;3549;42.162;24.726;2022-12-11T11:00:04;47857.38;;;-141.97;66.89
7018;BME280;3549;42.162;24.726;2022-12-11T11:02:33;47868.91;;;-141.97;67.87
7018;BME280;3549;42.162;24.726;2022-12-11T11:05:31;48007.31;;;-141.97;68.35
7018;BME280;3549;42.162;24.726;2022-12-11T11:08:13;47830.47;;;-141.97;67.49
7018;BME280;3549;42.162;24.726;2022-12-11T11:10:55;47957.34;;;-141.97;66.51
7018;BME280;3549;42.162;24.726;2022-12-11T11:13:22;47843.91;;;-141.97;67.71
7018;BME280;3549;42.162;24.726;2022-12-11T11:15:56;47855.44;;;-141.97;67.81
7018;BME280;3549;42.162;24.726;2022-12-11T11:18:25;47832.38;;;-141.97;68.09
7018;BME280;3549;42.162;24.726;2022-12-11T11:20:52;47799.72;;;-141.97;68.04
7018;BME280;3549;42.162;24.726;2022-12-11T11:23:19;47836.22;;;-141.97;67.94
7018;BME280;3549;42.162;24.726;2022-12-11T11:25:59;47817.00;;;-141.97;68.02
7018;BME280;3549;42.162;24.726;2022-12-11T11:28:32;47840.06;;;-141.97;66.97
7018;BME280;3549;42.162;24.726;2022-12-11T11:33:27;47842.00;;;-141.97;66.94
7018;BME280;3549;42.162;24.726;2022-12-11T11:35:56;47849.69;;;-141.97;66.74
7018;BME280;3549;42.162;24.726;2022-12-11T11:38:27;47801.63;;;-141.97;66.65
7018;BME280;3549;42.162;24.726;2022-12-11T11:46:19;47842.00;;;-141.97;67.15
7018;BME280;3549;42.162;24.726;2022-12-11T11:51:33;47842.00;;;-141.97;65.35
7018;BME280;3549;42.162;24.726;2022-12-11T11:54:02;47851.59;;;-141.97;63.27
7018;BME280;3549;42.162;24.726;2022-12-11T11:56:38;47822.78;;;-141.97;62.33
7018;BME280;3549;42.162;24.726;2022-12-11T11:59:16;47880.44;;;-141.97;62.43
7018;BME280;3549;42.162;24.726;2022-12-11T12:01:43;47972.72;;;-141.97;62.92
7018;BME280;3549;42.162;24.726;2022-12-11T12:04:12;47830.47;;;-141.97;63.24
7018;BME280;3549;42.162;24.726;2022-12-11T12:06:47;47913.13;;;-141.97;63.05
7018;BME280;3549;42.162;24.726;2022-12-11T12:12:13;47784.34;;;-141.97;63.35
7018;BME280;3549;42.162;24.726;2022-12-11T12:23:01;47838.16;;;-141.97;63.67
7018;BME280;3549;42.162;24.726;2022-12-11T12:25:33;47842.00;;;-141.97;63.73
7018;BME280;3549;42.162;24.726;2022-12-11T12:37:15;47842.00;;;-141.97;65.99
7018;BME280;3549;42.162;24.726;2022-12-11T12:47:43;47847.75;;;-141.97;67.32
7018;BME280;3549;42.162;24.726;2022-12-11T12:50:17;47851.59;;;-141.97;67.95
7018;BME280;3549;42.162;24.726;2022-12-11T12:52:44;47955.41;;;-141.97;68.20
7018;BME280;3549;42.162;24.726;2022-12-11T12:57:51;47832.38;;;-141.97;68.15
7018;BME280;3549;42.162;24.726;2022-12-11T13:00:40;47840.06;;;-141.97;69.12
7018;BME280;3549;42.162;24.726;2022-12-11T13:03:18;47809.31;;;-141.97;69.14
7018;BME280;3549;42.162;24.726;2022-12-11T13:06:26;47859.28;;;-141.97;68.98
7018;BME280;3549;42.162;24.726;2022-12-11T13:08:52;47842.00;;;-141.97;68.71
7018;BME280;3549;42.162;24.726;2022-12-11T13:11:19;47778.56;;;-141.97;68.48
7018;BME280;3549;42.162;24.726;2022-12-11T13:18:43;47793.94;;;-141.97;69.06
7018;BME280;3549;42.162;24.726;2022-12-11T13:23:53;47822.78;;;-141.97;69.28
7018;BME280;3549;42.162;24.726;2022-12-11T13:26:30;47830.47;;;-141.97;69.74
7018;BME280;3549;42.162;24.726;2022-12-11T13:28:57;47918.88;;;-141.97;69.85
7018;BME280;3549;42.162;24.726;2022-12-11T13:33:56;47957.34;;;-141.97;69.37
7018;BME280;3549;42.162;24.726;2022-12-11T13:38:58;47834.31;;;-141.97;69.41
7018;BME280;3549;42.162;24.726;2022-12-11T13:41:25;47982.31;;;-141.97;69.79
7018;BME280;3549;42.162;24.726;2022-12-11T13:43:52;47849.69;;;-141.97;70.39
7018;BME280;3549;42.162;24.726;2022-12-11T13:46:27;47870.81;;;-141.97;70.63
7018;BME280;3549;42.162;24.726;2022-12-11T13:48:56;47876.59;;;-141.97;70.81
7018;BME280;3549;42.162;24.726;2022-12-11T13:51:26;47874.69;;;-141.97;71.27
7018;BME280;3549;42.162;24.726;2022-12-11T13:54:21;47830.47;;;-141.97;71.78
7018;BME280;3549;42.162;24.726;2022-12-11T13:59:30;47866.97;;;-141.97;72.23
7018;BME280;3549;42.162;24.726;2022-12-11T14:01:57;47843.91;;;-141.97;71.92
7018;BME280;3549;42.162;24.726;2022-12-11T14:04:24;47842.00;;;-141.97;72.11
7018;BME280;3549;42.162;24.726;2022-12-11T14:06:52;47857.38;;;-141.97;72.06
7018;BME280;3549;42.162;24.726;2022-12-11T14:09:23;47857.38;;;-141.97;70.32
7018;BME280;3549;42.162;24.726;2022-12-11T14:11:51;47784.34;;;-141.97;70.30
7018;BME280;3549;42.162;24.726;2022-12-11T14:14:33;47757.41;;;-141.97;71.64